createdAt,value
2023-05-14T00:06:07.959Z,13.62
2023-05-14T00:16:12.143Z,13.69
2023-05-14T00:26:14.534Z,13.61
2023-05-14T00:36:18.266Z,13.58
2023-05-14T00:46:20.771Z,13.62
2023-05-14T00:56:24.854Z,13.52
2023-05-14T01:06:32.482Z,13.48
2023-05-14T01:16:38.347Z,13.51
2023-05-14T01:26:42.110Z,13.47
2023-05-14T01:36:44.847Z,13.42
2023-05-14T01:46:48.552Z,13.42
2023-05-14T01:56:51.168Z,13.42
2023-05-14T02:06:54.921Z,13.37
2023-05-14T02:16:57.345Z,13.32
2023-05-14T02:27:01.215Z,13.29
2023-05-14T02:37:03.824Z,13.25
2023-05-14T02:47:07.864Z,13.25
2023-05-14T02:57:10.303Z,13.28
2023-05-14T03:07:14.184Z,13.22
2023-05-14T03:17:16.686Z,13.25
2023-05-14T03:27:20.844Z,13.22
2023-05-14T03:37:23.395Z,13.22
2023-05-14T03:47:27.168Z,13.27
2023-05-14T03:57:29.594Z,13.28
2023-05-14T04:07:33.296Z,13.24
2023-05-14T04:17:35.727Z,13.26
2023-05-14T04:27:39.459Z,13.21
2023-05-14T04:37:41.834Z,13.22
2023-05-14T04:47:45.905Z,13.22
2023-05-14T04:57:49.202Z,13.27
2023-05-14T05:07:52.940Z,13.29
2023-05-14T05:17:55.383Z,13.30
2023-05-14T05:27:59.169Z,13.29
2023-05-14T05:38:01.965Z,13.27
2023-05-14T05:48:06.188Z,13.40
2023-05-14T05:58:08.644Z,13.38
2023-05-14T06:08:12.418Z,13.54
2023-05-14T06:18:14.779Z,13.50
2023-05-14T06:28:18.572Z,13.59
2023-05-14T06:38:20.924Z,13.49
2023-05-14T06:48:24.716Z,13.59
2023-05-14T06:58:27.182Z,13.70
2023-05-14T07:08:30.902Z,13.78
2023-05-14T07:18:33.323Z,13.96
2023-05-14T07:28:37.090Z,13.91
2023-05-14T07:38:39.474Z,13.92
2023-05-14T07:48:43.216Z,14.00
2023-05-14T07:58:46.201Z,14.02
2023-05-14T08:08:49.905Z,14.14
2023-05-14T08:18:52.455Z,14.15
2023-05-14T08:28:56.257Z,14.39
2023-05-14T08:38:58.639Z,14.45
2023-05-14T08:49:06.143Z,14.78
2023-05-14T08:59:08.532Z,14.93
2023-05-14T09:09:13.049Z,15.03
2023-05-14T09:19:16.002Z,15.25
2023-05-14T09:29:20.004Z,15.54
2023-05-14T09:39:23.680Z,15.77
2023-05-14T09:49:27.381Z,16.11
2023-05-14T09:59:29.770Z,16.41
2023-05-14T10:09:33.483Z,16.39
2023-05-14T10:19:36.875Z,16.54
2023-05-14T10:29:41.971Z,16.75
2023-05-14T10:39:45.370Z,17.41
2023-05-14T10:49:50.029Z,17.25
2023-05-14T10:59:54.849Z,16.85
2023-05-14T11:10:00.902Z,17.67
2023-05-14T11:20:05.022Z,18.51
2023-05-14T11:30:13.194Z,17.75
2023-05-14T11:40:16.473Z,18.31
2023-05-14T11:50:20.711Z,17.70
2023-05-14T12:00:24.636Z,18.02
2023-05-14T12:10:28.608Z,17.64
2023-05-14T12:20:30.995Z,18.01
2023-05-14T12:30:39.368Z,19.29
2023-05-14T12:40:44.572Z,19.07
2023-05-14T12:50:48.772Z,18.36
2023-05-14T13:00:53.023Z,18.13
2023-05-14T13:10:57.020Z,18.14
2023-05-14T13:20:59.392Z,18.73
2023-05-14T13:31:07.501Z,18.20
2023-05-14T13:41:09.968Z,19.48
2023-05-14T13:51:13.776Z,19.70
2023-05-14T14:01:16.363Z,18.58
2023-05-14T14:11:20.635Z,18.48
2023-05-14T14:21:23.086Z,18.30
2023-05-14T14:31:26.887Z,18.05
2023-05-14T14:41:29.343Z,17.81
2023-05-14T14:51:33.160Z,17.60
2023-05-14T15:01:35.675Z,17.64
2023-05-14T15:11:39.587Z,17.70
2023-05-14T15:21:41.983Z,17.73
2023-05-14T15:31:46.144Z,17.78
2023-05-14T15:41:48.527Z,17.77
2023-05-14T15:51:52.258Z,17.45
2023-05-14T16:01:54.727Z,17.31
2023-05-14T16:11:58.502Z,17.26
2023-05-14T16:22:00.945Z,17.23
2023-05-14T16:32:04.788Z,17.21
2023-05-14T16:42:07.200Z,16.92
2023-05-14T16:52:10.949Z,16.82
2023-05-14T17:02:13.467Z,16.96
2023-05-14T17:12:17.174Z,16.42
2023-05-14T17:22:19.654Z,16.39
2023-05-14T17:32:23.455Z,16.30
2023-05-14T17:42:26.107Z,16.52
2023-05-14T17:52:29.849Z,16.48
2023-05-14T18:02:32.278Z,16.45
2023-05-14T18:12:36.025Z,16.51
2023-05-14T18:22:38.466Z,16.37
2023-05-14T18:32:43.591Z,16.29
2023-05-14T18:42:46.179Z,16.22
2023-05-14T18:52:49.893Z,15.97
2023-05-14T19:02:52.400Z,15.87
2023-05-14T19:12:56.295Z,15.70
2023-05-14T19:22:59.703Z,15.50
2023-05-14T19:33:03.483Z,15.44
2023-05-14T19:43:07.796Z,15.29
2023-05-14T19:53:11.518Z,15.17
2023-05-14T20:03:14.036Z,15.19
2023-05-14T20:13:17.886Z,15.08
2023-05-14T20:23:20.699Z,15.01
2023-05-14T20:33:24.521Z,14.90
2023-05-14T20:43:27.318Z,14.78
2023-05-14T20:53:31.123Z,14.86
2023-05-14T21:03:33.641Z,14.78
2023-05-14T21:13:37.506Z,14.65
2023-05-14T21:23:40.012Z,14.67
2023-05-14T21:33:43.736Z,14.48
2023-05-14T21:43:46.833Z,14.33
2023-05-14T21:53:50.570Z,13.99
2023-05-14T22:03:53.368Z,14.24
2023-05-14T22:13:57.869Z,14.12
2023-05-14T22:24:00.330Z,14.14
2023-05-14T22:34:04.062Z,14.14
2023-05-14T22:44:06.475Z,13.94
2023-05-14T22:54:10.913Z,13.79
2023-05-14T23:04:13.374Z,13.71
2023-05-14T23:14:17.834Z,13.51
2023-05-14T23:24:20.259Z,13.48
2023-05-14T23:34:24.012Z,13.40
2023-05-14T23:44:26.409Z,13.35
2023-05-14T23:54:30.184Z,13.32
